createdAt,value
2023-03-26T00:01:29.588Z,55.08
2023-03-26T00:03:57.827Z,54.98
2023-03-26T00:06:30.938Z,54.63
2023-03-26T00:08:58.833Z,54.20
2023-03-26T00:11:27.837Z,53.82
2023-03-26T00:13:57.625Z,53.73
2023-03-26T00:16:27.048Z,53.75
2023-03-26T00:18:54.302Z,53.66
2023-03-26T00:21:28.236Z,53.67
2023-03-26T00:24:04.747Z,53.71
2023-03-26T00:26:33.561Z,53.68
2023-03-26T00:29:01.056Z,53.84
2023-03-26T00:31:28.254Z,53.85
2023-03-26T00:33:56.678Z,53.47
2023-03-26T00:36:25.687Z,53.49
2023-03-26T00:38:53.810Z,53.96
2023-03-26T00:41:23.165Z,53.71
2023-03-26T00:43:53.337Z,53.70
2023-03-26T00:46:21.127Z,53.62
2023-03-26T00:48:48.365Z,53.83
2023-03-26T00:51:17.774Z,53.77
2023-03-26T00:53:46.472Z,53.63
2023-03-26T00:56:14.339Z,54.03
2023-03-26T00:58:41.792Z,53.79
2023-03-26T01:01:15.019Z,53.94
2023-03-26T01:03:50.351Z,54.06
2023-03-26T01:06:36.066Z,54.10
2023-03-26T01:09:11.397Z,54.25
2023-03-26T01:11:38.564Z,54.16
2023-03-26T01:14:11.225Z,54.02
2023-03-26T01:16:52.089Z,53.95
2023-03-26T01:19:29.928Z,54.15
2023-03-26T01:21:58.258Z,53.87
2023-03-26T01:24:25.575Z,53.98
2023-03-26T01:27:25.594Z,54.07
2023-03-26T01:29:56.704Z,54.09
2023-03-26T01:32:30.941Z,54.20
2023-03-26T01:35:21.195Z,54.28
2023-03-26T01:38:26.182Z,54.13
2023-03-26T01:41:17.849Z,54.13
2023-03-26T01:43:50.621Z,54.15
2023-03-26T01:46:19.587Z,54.34
2023-03-26T01:48:46.928Z,54.17
2023-03-26T01:51:24.149Z,54.18
2023-03-26T01:53:51.369Z,54.32
2023-03-26T01:56:21.897Z,54.51
2023-03-26T01:59:27.133Z,54.52
2023-03-26T02:02:09.326Z,54.62
2023-03-26T02:04:53.059Z,54.27
2023-03-26T02:07:28.730Z,54.16
2023-03-26T02:09:59.613Z,54.34
2023-03-26T02:12:27.474Z,54.55
2023-03-26T02:14:54.707Z,54.41
2023-03-26T02:17:24.313Z,54.52
2023-03-26T02:19:51.634Z,54.08
2023-03-26T02:22:19.019Z,54.41
2023-03-26T02:24:46.264Z,54.57
2023-03-26T02:27:13.508Z,54.41
2023-03-26T02:29:42.485Z,54.36
2023-03-26T02:32:13.792Z,54.38
2023-03-26T02:34:41.589Z,54.28
2023-03-26T02:37:09.366Z,54.40
2023-03-26T02:39:36.543Z,54.44
2023-03-26T02:42:03.732Z,54.55
2023-03-26T02:44:30.892Z,54.63
2023-03-26T02:46:58.103Z,54.47
2023-03-26T02:49:25.298Z,54.55
2023-03-26T02:51:56.173Z,54.35
2023-03-26T02:54:23.748Z,54.43
2023-03-26T02:56:51.318Z,54.69
2023-03-26T02:59:18.726Z,54.39
2023-03-26T03:01:45.951Z,54.73
2023-03-26T03:04:13.552Z,54.56
2023-03-26T03:06:40.895Z,54.49
2023-03-26T03:09:11.810Z,54.68
2023-03-26T03:11:40.686Z,54.49
2023-03-26T03:14:07.877Z,54.56
2023-03-26T03:16:35.091Z,54.44
2023-03-26T03:19:02.900Z,54.62
2023-03-26T03:21:30.219Z,54.49
2023-03-26T03:24:00.029Z,54.47
2023-03-26T03:26:29.604Z,54.70
2023-03-26T03:28:57.486Z,54.40
2023-03-26T03:31:26.392Z,54.49
2023-03-26T03:33:53.659Z,54.36
2023-03-26T03:36:22.636Z,54.68
2023-03-26T03:38:50.303Z,54.49
2023-03-26T03:41:18.566Z,54.52
2023-03-26T03:43:46.465Z,54.46
2023-03-26T03:46:13.793Z,54.49
2023-03-26T03:48:40.992Z,54.59
2023-03-26T03:51:08.237Z,54.53
2023-03-26T03:53:37.261Z,54.76
2023-03-26T03:56:10.035Z,54.61
2023-03-26T03:58:37.342Z,54.61
2023-03-26T04:01:04.651Z,54.45
2023-03-26T04:03:33.512Z,54.43
2023-03-26T04:06:02.141Z,54.48
2023-03-26T04:08:30.196Z,54.64
2023-03-26T04:10:57.345Z,54.55
2023-03-26T04:13:24.575Z,54.53
2023-03-26T04:15:51.811Z,54.42
2023-03-26T04:18:20.288Z,54.54
2023-03-26T04:20:47.624Z,54.64
2023-03-26T04:23:15.925Z,54.39
2023-03-26T04:25:48.203Z,54.49
2023-03-26T04:28:32.219Z,54.43
2023-03-26T04:31:06.929Z,54.65
2023-03-26T04:33:35.476Z,54.42
2023-03-26T04:36:03.491Z,54.40
2023-03-26T04:38:33.516Z,54.64
2023-03-26T04:41:04.000Z,54.71
2023-03-26T04:43:35.406Z,54.58
2023-03-26T04:46:05.227Z,54.29
2023-03-26T04:48:32.687Z,54.35
2023-03-26T04:51:00.388Z,54.45
2023-03-26T04:53:27.561Z,54.46
2023-03-26T04:55:59.846Z,54.53
2023-03-26T04:58:32.655Z,54.45
2023-03-26T05:01:01.182Z,54.57
2023-03-26T05:03:39.562Z,54.59
2023-03-26T05:06:06.870Z,54.37
2023-03-26T05:08:34.036Z,54.48
2023-03-26T05:11:01.608Z,54.40
2023-03-26T05:13:28.831Z,54.48
2023-03-26T05:15:56.258Z,54.39
2023-03-26T05:18:23.426Z,54.48
2023-03-26T05:20:51.959Z,54.23
2023-03-26T05:23:19.146Z,54.36
2023-03-26T05:25:47.120Z,54.38
2023-03-26T05:28:14.435Z,54.78
2023-03-26T05:30:43.545Z,54.71
2023-03-26T05:33:10.830Z,54.67
2023-03-26T05:35:38.089Z,54.53
2023-03-26T05:38:06.472Z,54.35
2023-03-26T05:40:33.630Z,54.27
2023-03-26T05:43:00.780Z,54.32
2023-03-26T05:45:27.932Z,54.42
2023-03-26T05:47:55.831Z,54.40
2023-03-26T05:50:23.488Z,54.14
2023-03-26T05:52:50.943Z,54.43
2023-03-26T05:55:18.512Z,54.12
2023-03-26T05:57:45.971Z,54.30
2023-03-26T06:00:13.338Z,54.38
2023-03-26T06:02:42.801Z,54.26
2023-03-26T06:05:10.144Z,54.23
2023-03-26T06:07:37.334Z,54.31
2023-03-26T06:10:04.680Z,54.36
2023-03-26T06:12:32.058Z,54.28
2023-03-26T06:14:59.211Z,54.31
2023-03-26T06:17:26.426Z,54.06
2023-03-26T06:19:53.603Z,54.27
2023-03-26T06:22:20.848Z,54.26
2023-03-26T06:24:48.074Z,54.29
2023-03-26T06:27:15.357Z,54.25
2023-03-26T06:29:42.536Z,54.12
2023-03-26T06:32:19.122Z,54.02
2023-03-26T06:34:47.454Z,54.05
2023-03-26T06:37:14.735Z,54.15
2023-03-26T06:39:41.916Z,54.14
2023-03-26T06:42:09.215Z,53.81
2023-03-26T06:44:36.471Z,53.99
2023-03-26T06:47:03.667Z,53.94
2023-03-26T06:49:30.932Z,53.86
2023-03-26T06:51:58.109Z,53.92
2023-03-26T06:54:25.316Z,53.92
2023-03-26T06:56:52.641Z,53.92
2023-03-26T06:59:21.468Z,53.73
2023-03-26T07:01:48.628Z,53.85
2023-03-26T07:04:15.966Z,53.70
2023-03-26T07:06:43.155Z,53.77
2023-03-26T07:09:10.516Z,53.55
2023-03-26T07:11:37.692Z,53.37
2023-03-26T07:14:05.238Z,53.18
2023-03-26T07:16:32.507Z,53.04
2023-03-26T07:19:00.528Z,53.25
2023-03-26T07:21:28.172Z,53.42
2023-03-26T07:23:56.697Z,53.32
2023-03-26T07:26:23.975Z,53.26
2023-03-26T07:29:07.692Z,53.46
2023-03-26T07:31:48.426Z,53.33
2023-03-26T07:34:54.476Z,53.38
2023-03-26T07:37:33.617Z,53.05
2023-03-26T07:40:14.232Z,53.14
2023-03-26T07:42:44.121Z,53.27
2023-03-26T07:45:33.816Z,53.21
2023-03-26T07:48:02.129Z,53.04
2023-03-26T07:50:29.368Z,53.26
2023-03-26T07:52:56.780Z,52.81
2023-03-26T07:55:24.575Z,52.61
2023-03-26T07:58:19.898Z,52.61
2023-03-26T08:01:15.745Z,52.43
2023-03-26T08:04:23.112Z,52.30
2023-03-26T08:07:25.917Z,52.04
2023-03-26T08:10:05.621Z,52.00
2023-03-26T08:12:48.873Z,51.81
2023-03-26T08:15:32.462Z,51.78
2023-03-26T08:18:17.000Z,51.51
2023-03-26T08:20:54.333Z,51.84
2023-03-26T08:23:50.272Z,52.09
2023-03-26T08:26:38.586Z,53.08
2023-03-26T08:29:18.783Z,53.52
2023-03-26T08:31:48.421Z,53.42
2023-03-26T08:34:15.795Z,53.33
2023-03-26T08:36:43.037Z,52.78
2023-03-26T08:39:10.335Z,53.03
2023-03-26T08:41:56.295Z,52.57
2023-03-26T08:44:50.206Z,52.21
2023-03-26T08:47:39.339Z,51.73
2023-03-26T08:50:28.639Z,51.50
2023-03-26T08:53:38.890Z,51.45
2023-03-26T08:56:27.340Z,51.88
2023-03-26T08:59:04.800Z,51.85
2023-03-26T09:01:51.564Z,51.39
2023-03-26T09:04:29.970Z,51.33
2023-03-26T09:07:34.956Z,51.27
2023-03-26T09:10:30.954Z,51.08
2023-03-26T09:13:34.269Z,50.83
2023-03-26T09:16:34.538Z,51.01
2023-03-26T09:19:31.950Z,50.36
2023-03-26T09:22:06.884Z,50.24
2023-03-26T09:25:08.774Z,49.48
2023-03-26T09:27:59.160Z,49.65
2023-03-26T09:30:43.785Z,49.41
2023-03-26T09:33:21.896Z,49.42
2023-03-26T09:36:15.866Z,49.40
2023-03-26T09:38:45.649Z,49.57
2023-03-26T09:41:25.298Z,49.78
2023-03-26T09:44:01.590Z,50.19
2023-03-26T09:47:00.500Z,49.94
2023-03-26T09:50:04.694Z,49.89
2023-03-26T09:52:51.371Z,49.68
2023-03-26T09:55:35.035Z,49.78
2023-03-26T09:58:19.192Z,49.67
2023-03-26T10:00:54.889Z,49.47
2023-03-26T10:03:47.009Z,49.18
2023-03-26T10:06:22.301Z,49.30
2023-03-26T10:09:09.229Z,48.63
2023-03-26T10:12:02.672Z,48.32
2023-03-26T10:14:37.921Z,48.09
2023-03-26T10:17:20.822Z,47.92
2023-03-26T10:20:18.148Z,47.50
2023-03-26T10:23:06.816Z,47.32
2023-03-26T10:25:58.111Z,47.22
2023-03-26T10:28:47.280Z,47.05
2023-03-26T10:31:34.434Z,47.03
2023-03-26T10:34:52.769Z,46.82
2023-03-26T10:37:35.112Z,46.51
2023-03-26T10:40:31.623Z,46.69
2023-03-26T10:43:36.695Z,46.43
2023-03-26T10:46:51.928Z,46.42
2023-03-26T10:49:54.520Z,45.70
2023-03-26T10:52:33.766Z,45.59
2023-03-26T10:55:25.053Z,45.97
2023-03-26T10:58:16.839Z,45.97
2023-03-26T11:01:12.592Z,45.97
2023-03-26T11:03:57.409Z,46.11
2023-03-26T11:06:47.610Z,46.00
2023-03-26T11:09:33.113Z,46.22
2023-03-26T11:12:35.459Z,46.58
2023-03-26T11:15:12.147Z,47.10
2023-03-26T11:17:43.809Z,47.09
2023-03-26T11:20:22.177Z,47.41
2023-03-26T11:23:17.318Z,47.60
2023-03-26T11:25:57.173Z,47.79
2023-03-26T11:28:32.820Z,48.19
2023-03-26T11:31:13.190Z,47.99
2023-03-26T11:33:57.709Z,47.50
2023-03-26T11:36:30.819Z,47.04
2023-03-26T11:39:04.864Z,47.17
2023-03-26T11:41:33.687Z,46.76
2023-03-26T11:44:13.609Z,46.34
2023-03-26T11:46:44.868Z,46.55
2023-03-26T11:49:15.354Z,47.49
2023-03-26T11:51:44.995Z,47.64
2023-03-26T11:54:13.923Z,47.63
2023-03-26T11:57:05.147Z,47.57
2023-03-26T11:59:57.213Z,47.23
2023-03-26T12:02:34.238Z,46.81
2023-03-26T12:05:15.413Z,47.03
2023-03-26T12:07:57.099Z,47.41
2023-03-26T12:10:27.673Z,47.42
2023-03-26T12:12:58.417Z,47.48
2023-03-26T12:15:26.672Z,47.42
2023-03-26T12:17:56.980Z,47.37
2023-03-26T12:20:34.706Z,47.64
2023-03-26T12:23:06.442Z,47.73
2023-03-26T12:25:36.359Z,47.51
2023-03-26T12:28:18.877Z,47.11
2023-03-26T12:31:07.433Z,47.43
2023-03-26T12:33:38.870Z,47.49
2023-03-26T12:36:29.347Z,47.88
2023-03-26T12:39:15.969Z,47.83
2023-03-26T12:43:51.654Z,47.87
2023-03-26T12:44:55.429Z,48.17
2023-03-26T12:47:58.146Z,48.39
2023-03-26T12:50:34.616Z,48.27
2023-03-26T12:53:37.480Z,48.40
2023-03-26T12:56:19.980Z,48.62
2023-03-26T12:59:02.312Z,48.61
2023-03-26T13:01:50.720Z,48.60
2023-03-26T13:04:38.403Z,48.59
2023-03-26T13:07:34.054Z,48.68
2023-03-26T13:10:16.883Z,48.66
2023-03-26T13:13:22.340Z,48.83
2023-03-26T13:15:52.927Z,48.68
2023-03-26T13:18:43.576Z,48.54
2023-03-26T13:21:32.811Z,48.70
2023-03-26T13:24:33.727Z,48.79
2023-03-26T13:27:19.384Z,49.33
2023-03-26T13:30:01.010Z,50.31
2023-03-26T13:32:31.181Z,50.91
2023-03-26T13:35:31.168Z,51.36
2023-03-26T13:38:35.792Z,51.36
2023-03-26T13:41:25.072Z,50.53
2023-03-26T13:44:16.031Z,52.81
2023-03-26T13:46:55.706Z,53.35
2023-03-26T13:49:33.070Z,53.65
2023-03-26T13:52:10.899Z,52.81
2023-03-26T13:55:07.517Z,52.01
2023-03-26T13:57:47.019Z,52.00
2023-03-26T14:00:22.277Z,51.36
2023-03-26T14:03:08.274Z,51.24
2023-03-26T14:05:48.697Z,50.80
2023-03-26T14:08:25.827Z,50.65
2023-03-26T14:10:57.018Z,50.45
2023-03-26T14:13:46.833Z,50.43
2023-03-26T14:16:36.251Z,50.48
2023-03-26T14:19:42.099Z,50.40
2023-03-26T14:22:34.172Z,50.59
2023-03-26T14:25:41.720Z,50.63
2023-03-26T14:28:13.332Z,50.77
2023-03-26T14:31:04.402Z,51.31
2023-03-26T14:34:00.604Z,51.61
2023-03-26T14:36:59.507Z,51.45
2023-03-26T14:39:33.382Z,49.58
2023-03-26T14:42:24.997Z,46.64
2023-03-26T14:49:48.484Z,45.79
2023-03-26T14:52:24.966Z,44.83
2023-03-26T14:54:54.520Z,45.08
2023-03-26T14:57:22.946Z,43.80
2023-03-26T15:00:07.075Z,43.68
2023-03-26T15:03:13.876Z,44.75
2023-03-26T15:05:52.239Z,44.99
2023-03-26T15:08:59.223Z,45.42
2023-03-26T15:11:39.465Z,45.83
2023-03-26T15:14:44.228Z,46.30
2023-03-26T15:17:34.690Z,44.54
2023-03-26T15:20:32.941Z,43.39
2023-03-26T15:23:31.727Z,43.09
2023-03-26T15:26:17.988Z,43.21
2023-03-26T15:29:00.416Z,43.95
2023-03-26T15:31:50.761Z,43.66
2023-03-26T15:34:56.479Z,44.64
2023-03-26T15:38:03.975Z,45.25
2023-03-26T15:40:57.011Z,46.02
2023-03-26T15:43:28.361Z,46.53
2023-03-26T15:46:46.303Z,46.94
2023-03-26T15:49:39.697Z,46.86
2023-03-26T15:52:31.346Z,46.54
2023-03-26T15:55:16.653Z,44.04
2023-03-26T15:57:47.383Z,44.47
2023-03-26T16:00:22.757Z,44.68
2023-03-26T16:03:19.701Z,47.17
2023-03-26T16:06:15.785Z,47.03
2023-03-26T16:09:00.452Z,47.30
2023-03-26T16:11:48.794Z,47.36
2023-03-26T16:14:38.765Z,47.93
2023-03-26T16:17:13.258Z,47.97
2023-03-26T16:20:09.614Z,47.95
2023-03-26T16:22:53.186Z,48.69
2023-03-26T16:25:28.929Z,48.98
2023-03-26T16:28:21.185Z,48.55
2023-03-26T16:31:36.558Z,49.60
2023-03-26T16:34:31.329Z,47.32
2023-03-26T16:36:59.786Z,48.17
2023-03-26T16:39:54.097Z,50.05
2023-03-26T16:42:24.500Z,48.21
2023-03-26T16:45:11.570Z,46.91
2023-03-26T16:48:00.949Z,46.87
2023-03-26T16:50:37.578Z,46.76
2023-03-26T16:53:24.201Z,46.69
2023-03-26T16:56:16.794Z,46.05
2023-03-26T16:58:58.654Z,45.42
2023-03-26T17:01:48.251Z,45.71
2023-03-26T17:04:23.526Z,46.03
2023-03-26T17:07:05.671Z,46.56
2023-03-26T17:09:52.893Z,45.12
2023-03-26T17:12:50.901Z,45.59
2023-03-26T17:15:41.035Z,45.87
2023-03-26T17:18:32.363Z,45.85
2023-03-26T17:21:30.369Z,45.54
2023-03-26T17:24:38.870Z,46.73
2023-03-26T17:27:34.933Z,46.41
2023-03-26T17:30:27.119Z,46.95
2023-03-26T17:33:30.869Z,47.22
2023-03-26T17:36:16.167Z,47.08
2023-03-26T17:38:49.546Z,47.48
2023-03-26T17:41:55.394Z,48.93
2023-03-26T17:44:52.360Z,48.54
2023-03-26T17:47:53.185Z,48.94
2023-03-26T17:50:42.098Z,49.00
2023-03-26T17:53:34.003Z,49.55
2023-03-26T17:56:05.356Z,50.15
2023-03-26T17:58:45.187Z,50.41
2023-03-26T18:01:37.263Z,49.50
2023-03-26T18:04:12.297Z,49.57
2023-03-26T18:06:46.589Z,49.32
2023-03-26T18:09:28.602Z,49.39
2023-03-26T18:12:22.559Z,49.11
2023-03-26T18:15:13.376Z,49.23
2023-03-26T18:17:44.766Z,48.90
2023-03-26T18:20:21.196Z,49.26
2023-03-26T18:22:49.656Z,49.09
2023-03-26T18:25:33.905Z,49.17
2023-03-26T18:28:04.445Z,48.86
2023-03-26T18:30:31.800Z,48.63
2023-03-26T18:33:13.233Z,49.30
2023-03-26T18:36:09.534Z,49.59
2023-03-26T18:38:38.500Z,49.72
2023-03-26T18:41:09.700Z,49.52
2023-03-26T18:43:44.299Z,48.99
2023-03-26T18:46:13.609Z,48.77
2023-03-26T18:48:40.921Z,48.96
2023-03-26T18:51:08.699Z,49.45
2023-03-26T18:54:05.921Z,49.75
2023-03-26T18:56:42.627Z,49.73
2023-03-26T18:59:32.748Z,49.83
2023-03-26T19:02:05.332Z,51.79
2023-03-26T19:04:33.917Z,53.16
2023-03-26T19:07:01.908Z,52.63
2023-03-26T19:09:32.497Z,52.94
2023-03-26T19:12:06.842Z,54.80
2023-03-26T19:14:36.895Z,55.42
2023-03-26T19:17:06.788Z,48.90
2023-03-26T19:19:36.904Z,50.26
2023-03-26T19:22:08.873Z,55.73
2023-03-26T19:24:36.931Z,53.41
2023-03-26T19:27:05.432Z,52.85
2023-03-26T19:29:34.583Z,52.75
2023-03-26T19:32:14.118Z,52.84
2023-03-26T19:34:41.726Z,53.23
2023-03-26T19:37:23.888Z,53.72
2023-03-26T19:39:53.363Z,54.25
2023-03-26T19:42:23.166Z,54.19
2023-03-26T19:44:51.743Z,54.60
2023-03-26T19:47:26.779Z,54.84
2023-03-26T19:50:07.308Z,54.60
2023-03-26T19:52:38.483Z,53.51
2023-03-26T19:55:12.126Z,52.61
2023-03-26T19:57:39.341Z,52.57
2023-03-26T20:00:13.701Z,52.71
2023-03-26T20:02:42.419Z,53.25
2023-03-26T20:05:27.116Z,53.26
2023-03-26T20:07:57.419Z,53.59
2023-03-26T20:10:25.055Z,53.94
2023-03-26T20:12:52.703Z,48.39
2023-03-26T20:15:25.806Z,49.00
2023-03-26T20:17:55.169Z,50.22
2023-03-26T20:20:27.098Z,52.81
2023-03-26T20:22:55.007Z,51.30
2023-03-26T20:25:33.250Z,50.09
2023-03-26T20:28:00.522Z,49.69
2023-03-26T20:30:37.449Z,49.72
2023-03-26T20:33:13.448Z,50.26
2023-03-26T20:35:41.705Z,50.34
2023-03-26T20:38:09.825Z,50.64
2023-03-26T20:40:38.239Z,51.05
2023-03-26T20:43:14.493Z,50.95
2023-03-26T20:45:41.949Z,51.58
2023-03-26T20:48:10.356Z,53.01
2023-03-26T20:50:41.604Z,53.03
2023-03-26T20:53:18.014Z,52.97
2023-03-26T20:55:46.193Z,52.78
2023-03-26T20:58:17.806Z,52.16
2023-03-26T21:01:00.904Z,49.65
2023-03-26T21:03:28.292Z,50.36
2023-03-26T21:06:01.032Z,48.90
2023-03-26T21:08:34.671Z,48.51
2023-03-26T21:11:05.401Z,48.65
2023-03-26T21:13:45.368Z,48.92
2023-03-26T21:16:13.317Z,48.90
2023-03-26T21:18:41.792Z,49.30
2023-03-26T21:21:39.587Z,49.50
2023-03-26T21:24:29.427Z,49.89
2023-03-26T21:27:12.855Z,50.79
2023-03-26T21:29:40.390Z,50.99
2023-03-26T21:32:10.397Z,51.38
2023-03-26T21:37:07.190Z,51.79
2023-03-26T21:39:34.940Z,51.99
2023-03-26T21:42:05.454Z,52.13
2023-03-26T21:44:34.605Z,52.55
2023-03-26T21:47:02.154Z,52.62
2023-03-26T21:49:29.669Z,52.85
2023-03-26T21:51:57.089Z,52.93
2023-03-26T21:54:26.367Z,53.00
2023-03-26T21:57:08.481Z,53.03
2023-03-26T21:59:47.794Z,53.18
2023-03-26T22:02:40.403Z,53.52
2023-03-26T22:05:35.676Z,53.36
2023-03-26T22:08:07.018Z,52.86
2023-03-26T22:10:34.475Z,52.90
2023-03-26T22:13:01.962Z,52.62
2023-03-26T22:15:30.477Z,52.11
2023-03-26T22:18:04.121Z,51.80
2023-03-26T22:20:31.745Z,51.61
2023-03-26T22:22:59.704Z,51.76
2023-03-26T22:25:27.596Z,51.55
2023-03-26T22:27:54.753Z,51.72
2023-03-26T22:30:22.139Z,51.74
2023-03-26T22:32:50.166Z,51.61
2023-03-26T22:35:17.961Z,51.59
2023-03-26T22:37:45.363Z,51.62
2023-03-26T22:40:16.090Z,51.51
2023-03-26T22:42:43.446Z,51.34
2023-03-26T22:45:11.195Z,51.59
2023-03-26T22:47:38.714Z,51.51
2023-03-26T22:50:07.516Z,51.40
2023-03-26T22:52:35.903Z,51.14
2023-03-26T22:55:04.698Z,51.40
2023-03-26T22:57:31.883Z,51.51
2023-03-26T23:00:07.782Z,51.19
2023-03-26T23:02:35.040Z,51.15
2023-03-26T23:05:02.379Z,51.26
2023-03-26T23:07:31.395Z,50.98
2023-03-26T23:09:58.798Z,51.04
2023-03-26T23:12:26.365Z,51.08
2023-03-26T23:14:53.712Z,51.04
2023-03-26T23:17:21.266Z,50.87
2023-03-26T23:19:49.482Z,51.40
2023-03-26T23:22:16.787Z,51.40
2023-03-26T23:24:44.543Z,51.61
2023-03-26T23:27:12.824Z,51.66
2023-03-26T23:29:40.048Z,51.77
2023-03-26T23:32:24.253Z,51.88
2023-03-26T23:34:52.775Z,52.08
2023-03-26T23:37:23.195Z,52.06
2023-03-26T23:39:51.859Z,51.98
2023-03-26T23:42:28.816Z,52.12
2023-03-26T23:44:57.402Z,52.04
2023-03-26T23:47:25.355Z,52.15
2023-03-26T23:49:52.572Z,52.17
2023-03-26T23:52:19.738Z,52.03
2023-03-26T23:54:47.291Z,52.21
2023-03-26T23:57:14.551Z,52.33
2023-03-26T23:59:42.063Z,52.12
